Airfield :
LOGIN :

Register | Disclaimer

   EN    FR    IT 

 










Legend :    VFR   Marginal VFR   IFR   Intensive IFR   Very Intensive IFR
Visi :
Ceiling :
>= 8 km
>= 3000ft
5 to 8 km
1000 to 3000 ft
1500m to 5 km
500 to 1000 ft
800 to 1500m
200 to 500 ft
< 800m
< 200 ft
Symbols :   Thunderstorms  Fog  Heavy snow  Heavy precipitations  Wind > 20 kt
SIGMETs :     Misc.  Thunderstorms  Icing  Turbulence  Mountain Waves  Volcanic Ashes







- Airport Elevation : 257 ft
- IATA code : MAN
- Download approach charts


EGCC - Manchester

CURRENT METAR :
  • 150720Z 24009KT 1500 DZ FEW002 SCT003 OVC015 14/14 Q1024 TEMPO 1200 BKN003

EXPIRED METARs :
  • 150650Z 23007KT 1800 DZ FEW004 SCT008 OVC016 14/13 Q1023 TEMPO 6000 NSW BKN007
  • 150620Z 22006KT 2500 DZ FEW004 OVC012 14/13 Q1023 TEMPO 6000 NSW BKN008
  • 150550Z 18004KT 130V220 2500 DZ SCT004 BKN010 13/13 Q1023 TEMPO 6000 SCT010
  • 150520Z 18004KT 2500 DZRA SCT012 OVC018 13/12 Q1023 TEMPO 6000 NSW BKN012
  • 150450Z AUTO 19005KT 4400 RADZ BKN012 OVC018 13/11 Q1023 TEMPO 6000 NSW

TAF AMD TAF EGCC
Valid from the 15 at 07:00 until the 16 at 12:00 UTC


150709Z 1507/1612 23007KT 9999 FEW003 SCT015
TEMPO 1507/1510 1200 DZ BKN003
TEMPO 1510/1606 6000 -RADZ SCT004 BKN006
BECMG 1512/1515 31010KT
PROB30
TEMPO 1515/1520 4000 RADZ BKN004
TEMPO 1520/1606 4000 RADZ BKN004
ATIS : +44 161 499 2324
No reported NOTAMs for that airfield.



MET'MAP, your aeronautical weather chart ! - Copyright ORBIFLY December 2007 - Disclaimer

ORBIFLY MET'MAP TEAM :

Programming & Development : Alexandra Zaïnal
Concept & Development : Baudouin d'Aumeries
Co-Development & Prog : Marc-Olivier Méhu
Technical & hardware support : Manuel Goepfert

Contact : metmap@orbifly.com




SOURCES & CREDITS :

   NOAA